sensor_id;sensor_type;location;lat;lon;timestamp;P1;durP1;ratioP1;P2;durP2;ratioP2
71767;SDS011;59604;52.138;5.446;2022-11-15T00:00:50;32.58;;;11.73;;
71767;SDS011;59604;52.138;5.446;2022-11-15T00:03:18;35.25;;;11.93;;
71767;SDS011;59604;52.138;5.446;2022-11-15T00:05:47;33.97;;;11.93;;
71767;SDS011;59604;52.138;5.446;2022-11-15T00:08:15;33.67;;;12.10;;
71767;SDS011;59604;52.138;5.446;2022-11-15T00:10:42;36.88;;;13.00;;
71767;SDS011;59604;52.138;5.446;2022-11-15T00:13:10;33.33;;;12.23;;
71767;SDS011;59604;52.138;5.446;2022-11-15T00:15:38;35.22;;;12.35;;
71767;SDS011;59604;52.138;5.446;2022-11-15T00:18:06;38.58;;;12.82;;
71767;SDS011;59604;52.138;5.446;2022-11-15T00:20:37;42.22;;;13.55;;
71767;SDS011;59604;52.138;5.446;2022-11-15T00:23:04;36.53;;;12.30;;
71767;SDS011;59604;52.138;5.446;2022-11-15T00:25:31;34.53;;;12.32;;
71767;SDS011;59604;52.138;5.446;2022-11-15T00:27:58;37.58;;;12.55;;
71767;SDS011;59604;52.138;5.446;2022-11-15T00:30:25;38.83;;;13.23;;
71767;SDS011;59604;52.138;5.446;2022-11-15T00:32:53;35.53;;;12.48;;
71767;SDS011;59604;52.138;5.446;2022-11-15T00:35:19;38.35;;;12.30;;
71767;SDS011;59604;52.138;5.446;2022-11-15T00:37:47;45.80;;;13.18;;
71767;SDS011;59604;52.138;5.446;2022-11-15T00:40:14;41.13;;;12.27;;
71767;SDS011;59604;52.138;5.446;2022-11-15T00:42:41;46.10;;;13.35;;
71767;SDS011;59604;52.138;5.446;2022-11-15T00:45:08;41.88;;;12.82;;
71767;SDS011;59604;52.138;5.446;2022-11-15T00:47:35;46.35;;;13.57;;
71767;SDS011;59604;52.138;5.446;2022-11-15T00:50:02;39.15;;;12.38;;
71767;SDS011;59604;52.138;5.446;2022-11-15T00:52:29;35.65;;;11.68;;
71767;SDS011;59604;52.138;5.446;2022-11-15T00:54:55;40.42;;;12.75;;
71767;SDS011;59604;52.138;5.446;2022-11-15T00:57:22;38.15;;;12.95;;
71767;SDS011;59604;52.138;5.446;2022-11-15T00:59:48;40.42;;;12.18;;
71767;SDS011;59604;52.138;5.446;2022-11-15T01:02:15;41.72;;;13.63;;
71767;SDS011;59604;52.138;5.446;2022-11-15T01:04:41;51.53;;;13.55;;
71767;SDS011;59604;52.138;5.446;2022-11-15T01:07:08;46.65;;;13.40;;
71767;SDS011;59604;52.138;5.446;2022-11-15T01:09:34;45.03;;;14.18;;
71767;SDS011;59604;52.138;5.446;2022-11-15T01:12:01;48.00;;;14.40;;
71767;SDS011;59604;52.138;5.446;2022-11-15T01:14:27;45.47;;;12.95;;
71767;SDS011;59604;52.138;5.446;2022-11-15T01:16:54;48.10;;;13.38;;
71767;SDS011;59604;52.138;5.446;2022-11-15T01:19:20;42.58;;;13.38;;
71767;SDS011;59604;52.138;5.446;2022-11-15T01:21:50;44.53;;;14.13;;
71767;SDS011;59604;52.138;5.446;2022-11-15T01:24:17;40.75;;;12.43;;
71767;SDS011;59604;52.138;5.446;2022-11-15T01:26:43;44.80;;;13.20;;
71767;SDS011;59604;52.138;5.446;2022-11-15T01:29:10;42.35;;;13.05;;
71767;SDS011;59604;52.138;5.446;2022-11-15T01:31:37;39.20;;;12.38;;
71767;SDS011;59604;52.138;5.446;2022-11-15T01:34:04;42.25;;;12.80;;
71767;SDS011;59604;52.138;5.446;2022-11-15T01:36:30;41.03;;;13.05;;
71767;SDS011;59604;52.138;5.446;2022-11-15T01:38:57;43.97;;;14.10;;
71767;SDS011;59604;52.138;5.446;2022-11-15T01:41:26;46.03;;;13.40;;
71767;SDS011;59604;52.138;5.446;2022-11-15T01:43:55;42.92;;;13.02;;
71767;SDS011;59604;52.138;5.446;2022-11-15T01:46:30;39.33;;;12.27;;
71767;SDS011;59604;52.138;5.446;2022-11-15T01:49:02;37.60;;;11.70;;
71767;SDS011;59604;52.138;5.446;2022-11-15T01:51:40;37.15;;;11.98;;
71767;SDS011;59604;52.138;5.446;2022-11-15T01:54:10;40.10;;;12.40;;
71767;SDS011;59604;52.138;5.446;2022-11-15T01:56:43;41.42;;;12.75;;
71767;SDS011;59604;52.138;5.446;2022-11-15T01:59:14;36.45;;;12.50;;
71767;SDS011;59604;52.138;5.446;2022-11-15T02:01:40;38.70;;;12.40;;
71767;SDS011;59604;52.138;5.446;2022-11-15T02:04:10;37.50;;;12.48;;
71767;SDS011;59604;52.138;5.446;2022-11-15T02:06:42;37.08;;;12.50;;
71767;SDS011;59604;52.138;5.446;2022-11-15T02:09:10;37.25;;;12.75;;
71767;SDS011;59604;52.138;5.446;2022-11-15T02:11:37;40.67;;;12.68;;
71767;SDS011;59604;52.138;5.446;2022-11-15T02:14:04;36.78;;;12.00;;
71767;SDS011;59604;52.138;5.446;2022-11-15T02:16:38;34.72;;;12.65;;
71767;SDS011;59604;52.138;5.446;2022-11-15T02:24:49;35.28;;;12.07;;
71767;SDS011;59604;52.138;5.446;2022-11-15T02:27:35;36.85;;;13.25;;
71767;SDS011;59604;52.138;5.446;2022-11-15T02:30:27;36.22;;;12.52;;
71767;SDS011;59604;52.138;5.446;2022-11-15T02:41:03;35.70;;;12.95;;
71767;SDS011;59604;52.138;5.446;2022-11-15T02:46:53;39.10;;;12.85;;
71767;SDS011;59604;52.138;5.446;2022-11-15T02:49:47;42.30;;;12.30;;
71767;SDS011;59604;52.138;5.446;2022-11-15T02:52:22;35.88;;;13.57;;
71767;SDS011;59604;52.138;5.446;2022-11-15T02:54:54;36.92;;;13.48;;
71767;SDS011;59604;52.138;5.446;2022-11-15T03:00:18;34.53;;;12.50;;
71767;SDS011;59604;52.138;5.446;2022-11-15T03:11:11;33.15;;;12.40;;
71767;SDS011;59604;52.138;5.446;2022-11-15T03:19:04;34.60;;;12.50;;
71767;SDS011;59604;52.138;5.446;2022-11-15T03:21:39;34.17;;;12.73;;
71767;SDS011;59604;52.138;5.446;2022-11-15T03:24:07;33.28;;;12.50;;
71767;SDS011;59604;52.138;5.446;2022-11-15T03:29:13;31.38;;;12.07;;
71767;SDS011;59604;52.138;5.446;2022-11-15T03:31:45;31.15;;;11.75;;
71767;SDS011;59604;52.138;5.446;2022-11-15T03:34:21;31.85;;;12.73;;
71767;SDS011;59604;52.138;5.446;2022-11-15T03:36:54;34.97;;;12.75;;
71767;SDS011;59604;52.138;5.446;2022-11-15T03:39:21;31.80;;;12.55;;
71767;SDS011;59604;52.138;5.446;2022-11-15T03:41:52;34.90;;;12.20;;
71767;SDS011;59604;52.138;5.446;2022-11-15T03:44:41;31.80;;;13.23;;
71767;SDS011;59604;52.138;5.446;2022-11-15T03:49:55;36.30;;;12.70;;
71767;SDS011;59604;52.138;5.446;2022-11-15T03:52:25;32.97;;;12.68;;
71767;SDS011;59604;52.138;5.446;2022-11-15T03:54:53;30.88;;;11.90;;
71767;SDS011;59604;52.138;5.446;2022-11-15T03:57:22;34.22;;;12.90;;
71767;SDS011;59604;52.138;5.446;2022-11-15T03:59:48;32.03;;;12.95;;
71767;SDS011;59604;52.138;5.446;2022-11-15T04:02:15;33.05;;;12.68;;
71767;SDS011;59604;52.138;5.446;2022-11-15T04:04:41;30.90;;;12.77;;
71767;SDS011;59604;52.138;5.446;2022-11-15T04:07:08;31.30;;;12.68;;
71767;SDS011;59604;52.138;5.446;2022-11-15T04:09:35;32.03;;;12.98;;
71767;SDS011;59604;52.138;5.446;2022-11-15T04:12:21;31.00;;;13.15;;
71767;SDS011;59604;52.138;5.446;2022-11-15T04:14:58;33.88;;;12.80;;
71767;SDS011;59604;52.138;5.446;2022-11-15T04:17:41;31.58;;;13.00;;
71767;SDS011;59604;52.138;5.446;2022-11-15T04:23:09;34.00;;;12.20;;
71767;SDS011;59604;52.138;5.446;2022-11-15T04:25:57;28.80;;;12.10;;
71767;SDS011;59604;52.138;5.446;2022-11-15T04:28:27;31.05;;;12.77;;
71767;SDS011;59604;52.138;5.446;2022-11-15T04:30:54;32.38;;;12.60;;
71767;SDS011;59604;52.138;5.446;2022-11-15T04:33:21;32.70;;;12.73;;
71767;SDS011;59604;52.138;5.446;2022-11-15T04:35:48;32.63;;;13.02;;
71767;SDS011;59604;52.138;5.446;2022-11-15T04:38:33;28.45;;;12.30;;
71767;SDS011;59604;52.138;5.446;2022-11-15T04:41:01;30.20;;;12.35;;
71767;SDS011;59604;52.138;5.446;2022-11-15T04:43:28;33.33;;;12.63;;
71767;SDS011;59604;52.138;5.446;2022-11-15T04:45:55;29.77;;;12.18;;
71767;SDS011;59604;52.138;5.446;2022-11-15T04:48:22;29.73;;;12.68;;
71767;SDS011;59604;52.138;5.446;2022-11-15T04:50:48;33.80;;;13.45;;
71767;SDS011;59604;52.138;5.446;2022-11-15T04:53:15;28.65;;;12.07;;
71767;SDS011;59604;52.138;5.446;2022-11-15T04:55:44;36.85;;;12.82;;
71767;SDS011;59604;52.138;5.446;2022-11-15T04:58:11;31.70;;;12.50;;
71767;SDS011;59604;52.138;5.446;2022-11-15T05:00:38;33.25;;;12.73;;
71767;SDS011;59604;52.138;5.446;2022-11-15T05:03:06;32.88;;;12.32;;
71767;SDS011;59604;52.138;5.446;2022-11-15T05:05:51;29.50;;;13.00;;
71767;SDS011;59604;52.138;5.446;2022-11-15T05:08:17;32.10;;;11.98;;
71767;SDS011;59604;52.138;5.446;2022-11-15T05:10:44;34.30;;;12.43;;
71767;SDS011;59604;52.138;5.446;2022-11-15T05:13:11;34.85;;;11.93;;
71767;SDS011;59604;52.138;5.446;2022-11-15T05:15:37;26.85;;;11.70;;
71767;SDS011;59604;52.138;5.446;2022-11-15T05:18:04;31.48;;;12.43;;
71767;SDS011;59604;52.138;5.446;2022-11-15T05:20:30;27.58;;;11.93;;
71767;SDS011;59604;52.138;5.446;2022-11-15T05:22:57;26.95;;;11.75;;
71767;SDS011;59604;52.138;5.446;2022-11-15T05:25:23;30.30;;;11.88;;
71767;SDS011;59604;52.138;5.446;2022-11-15T05:27:50;26.50;;;11.38;;
71767;SDS011;59604;52.138;5.446;2022-11-15T05:30:17;27.45;;;11.05;;
71767;SDS011;59604;52.138;5.446;2022-11-15T05:32:43;28.35;;;11.57;;
71767;SDS011;59604;52.138;5.446;2022-11-15T05:35:15;26.98;;;11.75;;
71767;SDS011;59604;52.138;5.446;2022-11-15T05:37:47;29.73;;;12.07;;
71767;SDS011;59604;52.138;5.446;2022-11-15T05:40:14;30.10;;;12.20;;
71767;SDS011;59604;52.138;5.446;2022-11-15T05:42:41;28.48;;;11.38;;
71767;SDS011;59604;52.138;5.446;2022-11-15T05:45:08;33.20;;;12.48;;
71767;SDS011;59604;52.138;5.446;2022-11-15T05:47:35;26.08;;;12.15;;
71767;SDS011;59604;52.138;5.446;2022-11-15T05:50:03;27.33;;;11.75;;
71767;SDS011;59604;52.138;5.446;2022-11-15T05:52:31;32.80;;;12.35;;
71767;SDS011;59604;52.138;5.446;2022-11-15T05:55:03;29.40;;;12.20;;
71767;SDS011;59604;52.138;5.446;2022-11-15T05:57:32;29.45;;;12.40;;
71767;SDS011;59604;52.138;5.446;2022-11-15T05:59:59;31.58;;;12.32;;
71767;SDS011;59604;52.138;5.446;2022-11-15T06:02:26;32.45;;;12.25;;
71767;SDS011;59604;52.138;5.446;2022-11-15T06:04:52;30.88;;;11.70;;
71767;SDS011;59604;52.138;5.446;2022-11-15T06:07:19;35.22;;;12.70;;
71767;SDS011;59604;52.138;5.446;2022-11-15T06:09:45;31.65;;;12.35;;
71767;SDS011;59604;52.138;5.446;2022-11-15T06:12:12;29.15;;;12.30;;
71767;SDS011;59604;52.138;5.446;2022-11-15T06:14:39;30.77;;;12.43;;
71767;SDS011;59604;52.138;5.446;2022-11-15T06:17:06;32.28;;;13.07;;
71767;SDS011;59604;52.138;5.446;2022-11-15T06:19:36;27.25;;;11.65;;
71767;SDS011;59604;52.138;5.446;2022-11-15T06:22:03;29.60;;;12.27;;
71767;SDS011;59604;52.138;5.446;2022-11-15T06:24:29;26.65;;;11.65;;
71767;SDS011;59604;52.138;5.446;2022-11-15T06:26:56;26.77;;;11.80;;
71767;SDS011;59604;52.138;5.446;2022-11-15T06:29:23;33.22;;;12.60;;
71767;SDS011;59604;52.138;5.446;2022-11-15T06:31:50;31.55;;;12.32;;
71767;SDS011;59604;52.138;5.446;2022-11-15T06:34:17;32.53;;;12.20;;
71767;SDS011;59604;52.138;5.446;2022-11-15T06:36:43;33.25;;;12.32;;
71767;SDS011;59604;52.138;5.446;2022-11-15T06:39:10;29.15;;;12.05;;
71767;SDS011;59604;52.138;5.446;2022-11-15T06:41:36;33.13;;;12.52;;
71767;SDS011;59604;52.138;5.446;2022-11-15T06:44:03;33.65;;;12.60;;
71767;SDS011;59604;52.138;5.446;2022-11-15T06:46:29;28.67;;;12.45;;
71767;SDS011;59604;52.138;5.446;2022-11-15T06:48:56;29.75;;;12.30;;
71767;SDS011;59604;52.138;5.446;2022-11-15T06:51:22;29.58;;;12.07;;
71767;SDS011;59604;52.138;5.446;2022-11-15T06:53:49;30.48;;;12.00;;
71767;SDS011;59604;52.138;5.446;2022-11-15T06:56:15;34.45;;;12.55;;
71767;SDS011;59604;52.138;5.446;2022-11-15T06:58:42;28.42;;;12.30;;
71767;SDS011;59604;52.138;5.446;2022-11-15T07:01:09;31.40;;;11.50;;
71767;SDS011;59604;52.138;5.446;2022-11-15T07:03:38;30.58;;;12.40;;
71767;SDS011;59604;52.138;5.446;2022-11-15T07:06:06;32.33;;;12.23;;
71767;SDS011;59604;52.138;5.446;2022-11-15T07:08:33;30.88;;;12.38;;
71767;SDS011;59604;52.138;5.446;2022-11-15T07:11:01;31.63;;;11.85;;
71767;SDS011;59604;52.138;5.446;2022-11-15T07:13:29;32.90;;;12.95;;
71767;SDS011;59604;52.138;5.446;2022-11-15T07:16:02;32.50;;;12.85;;
71767;SDS011;59604;52.138;5.446;2022-11-15T07:18:34;32.47;;;12.25;;
71767;SDS011;59604;52.138;5.446;2022-11-15T07:21:06;33.85;;;11.90;;
71767;SDS011;59604;52.138;5.446;2022-11-15T07:23:35;37.70;;;12.93;;
71767;SDS011;59604;52.138;5.446;2022-11-15T07:26:04;30.05;;;11.55;;
71767;SDS011;59604;52.138;5.446;2022-11-15T07:28:31;31.95;;;11.90;;
71767;SDS011;59604;52.138;5.446;2022-11-15T07:30:57;32.72;;;11.77;;
71767;SDS011;59604;52.138;5.446;2022-11-15T07:33:24;33.65;;;11.90;;
71767;SDS011;59604;52.138;5.446;2022-11-15T07:35:50;31.40;;;11.32;;
71767;SDS011;59604;52.138;5.446;2022-11-15T07:38:17;30.25;;;11.73;;
71767;SDS011;59604;52.138;5.446;2022-11-15T07:40:47;27.65;;;11.07;;
71767;SDS011;59604;52.138;5.446;2022-11-15T07:43:22;29.70;;;11.63;;
71767;SDS011;59604;52.138;5.446;2022-11-15T07:45:48;25.73;;;10.82;;
71767;SDS011;59604;52.138;5.446;2022-11-15T07:48:21;30.10;;;11.88;;
71767;SDS011;59604;52.138;5.446;2022-11-15T07:50:48;26.83;;;11.10;;
71767;SDS011;59604;52.138;5.446;2022-11-15T07:53:14;28.02;;;11.55;;
71767;SDS011;59604;52.138;5.446;2022-11-15T07:55:41;29.85;;;11.40;;
71767;SDS011;59604;52.138;5.446;2022-11-15T07:58:09;30.20;;;10.95;;
71767;SDS011;59604;52.138;5.446;2022-11-15T08:00:37;29.17;;;10.93;;
71767;SDS011;59604;52.138;5.446;2022-11-15T08:03:05;28.42;;;10.80;;
71767;SDS011;59604;52.138;5.446;2022-11-15T08:05:32;28.77;;;11.30;;
71767;SDS011;59604;52.138;5.446;2022-11-15T08:07:59;26.42;;;10.32;;
71767;SDS011;59604;52.138;5.446;2022-11-15T08:10:26;27.35;;;10.73;;
71767;SDS011;59604;52.138;5.446;2022-11-15T08:12:58;25.67;;;9.75;;
71767;SDS011;59604;52.138;5.446;2022-11-15T08:15:29;27.55;;;10.55;;
71767;SDS011;59604;52.138;5.446;2022-11-15T08:17:57;27.98;;;10.68;;
71767;SDS011;59604;52.138;5.446;2022-11-15T08:22:52;27.35;;;10.30;;
71767;SDS011;59604;52.138;5.446;2022-11-15T08:25:19;22.55;;;9.90;;
71767;SDS011;59604;52.138;5.446;2022-11-15T08:27:45;24.15;;;10.63;;
71767;SDS011;59604;52.138;5.446;2022-11-15T08:30:12;24.73;;;9.85;;
71767;SDS011;59604;52.138;5.446;2022-11-15T08:32:39;27.10;;;10.80;;
71767;SDS011;59604;52.138;5.446;2022-11-15T08:35:06;24.63;;;10.07;;
71767;SDS011;59604;52.138;5.446;2022-11-15T08:37:33;24.33;;;9.90;;
71767;SDS011;59604;52.138;5.446;2022-11-15T08:39:59;25.70;;;9.90;;
71767;SDS011;59604;52.138;5.446;2022-11-15T08:42:26;26.48;;;10.45;;
71767;SDS011;59604;52.138;5.446;2022-11-15T08:44:52;23.80;;;10.10;;
71767;SDS011;59604;52.138;5.446;2022-11-15T08:47:19;25.00;;;10.32;;
71767;SDS011;59604;52.138;5.446;2022-11-15T08:49:45;24.23;;;10.05;;
71767;SDS011;59604;52.138;5.446;2022-11-15T08:52:12;26.40;;;10.57;;
71767;SDS011;59604;52.138;5.446;2022-11-15T08:54:40;24.60;;;10.32;;
71767;SDS011;59604;52.138;5.446;2022-11-15T08:57:06;27.00;;;10.57;;
71767;SDS011;59604;52.138;5.446;2022-11-15T08:59:33;25.80;;;10.48;;
71767;SDS011;59604;52.138;5.446;2022-11-15T09:01:59;25.52;;;11.10;;
71767;SDS011;59604;52.138;5.446;2022-11-15T09:04:26;22.60;;;10.00;;
71767;SDS011;59604;52.138;5.446;2022-11-15T09:06:52;21.75;;;9.60;;
71767;SDS011;59604;52.138;5.446;2022-11-15T09:09:19;22.27;;;9.55;;
71767;SDS011;59604;52.138;5.446;2022-11-15T09:11:45;24.05;;;9.77;;
71767;SDS011;59604;52.138;5.446;2022-11-15T09:14:13;24.60;;;9.27;;
71767;SDS011;59604;52.138;5.446;2022-11-15T09:16:39;21.63;;;9.68;;
71767;SDS011;59604;52.138;5.446;2022-11-15T09:19:06;21.88;;;9.23;;
71767;SDS011;59604;52.138;5.446;2022-11-15T09:21:37;22.48;;;9.80;;
71767;SDS011;59604;52.138;5.446;2022-11-15T09:24:03;21.05;;;9.50;;
71767;SDS011;59604;52.138;5.446;2022-11-15T09:26:30;20.35;;;9.70;;
71767;SDS011;59604;52.138;5.446;2022-11-15T09:28:57;21.70;;;9.68;;
71767;SDS011;59604;52.138;5.446;2022-11-15T09:31:23;22.48;;;9.80;;
71767;SDS011;59604;52.138;5.446;2022-11-15T09:33:50;19.88;;;9.13;;
71767;SDS011;59604;52.138;5.446;2022-11-15T09:36:17;19.35;;;8.95;;
71767;SDS011;59604;52.138;5.446;2022-11-15T09:38:44;17.80;;;7.80;;
71767;SDS011;59604;52.138;5.446;2022-11-15T09:49:30;17.95;;;7.28;;
71767;SDS011;59604;52.138;5.446;2022-11-15T09:51:58;16.02;;;7.55;;
71767;SDS011;59604;52.138;5.446;2022-11-15T10:03:10;17.17;;;7.20;;
71767;SDS011;59604;52.138;5.446;2022-11-15T10:05:44;15.63;;;7.47;;
71767;SDS011;59604;52.138;5.446;2022-11-15T10:10:57;13.68;;;7.15;;
71767;SDS011;59604;52.138;5.446;2022-11-15T10:13:46;16.58;;;6.97;;
71767;SDS011;59604;52.138;5.446;2022-11-15T10:24:31;11.88;;;5.90;;
71767;SDS011;59604;52.138;5.446;2022-11-15T10:27:03;11.93;;;5.85;;
71767;SDS011;59604;52.138;5.446;2022-11-15T10:29:35;9.73;;;5.18;;
71767;SDS011;59604;52.138;5.446;2022-11-15T10:32:02;9.43;;;5.03;;
71767;SDS011;59604;52.138;5.446;2022-11-15T10:34:29;10.80;;;5.10;;
71767;SDS011;59604;52.138;5.446;2022-11-15T10:37:02;11.80;;;4.68;;
71767;SDS011;59604;52.138;5.446;2022-11-15T10:39:28;10.52;;;4.88;;
71767;SDS011;59604;52.138;5.446;2022-11-15T10:41:55;9.70;;;4.47;;
71767;SDS011;59604;52.138;5.446;2022-11-15T10:44:24;10.77;;;4.07;;
71767;SDS011;59604;52.138;5.446;2022-11-15T10:49:25;9.35;;;4.22;;
71767;SDS011;59604;52.138;5.446;2022-11-15T10:51:57;7.93;;;3.65;;
71767;SDS011;59604;52.138;5.446;2022-11-15T10:54:37;9.00;;;3.80;;
71767;SDS011;59604;52.138;5.446;2022-11-15T10:57:20;7.97;;;3.95;;
71767;SDS011;59604;52.138;5.446;2022-11-15T10:59:50;7.43;;;3.55;;
71767;SDS011;59604;52.138;5.446;2022-11-15T11:02:26;9.10;;;3.85;;
71767;SDS011;59604;52.138;5.446;2022-11-15T11:05:05;7.65;;;3.60;;
71767;SDS011;59604;52.138;5.446;2022-11-15T11:10:56;7.68;;;3.10;;
71767;SDS011;59604;52.138;5.446;2022-11-15T11:13:33;6.50;;;2.95;;
71767;SDS011;59604;52.138;5.446;2022-11-15T11:21:21;8.55;;;3.10;;
71767;SDS011;59604;52.138;5.446;2022-11-15T11:24:11;6.80;;;2.88;;
71767;SDS011;59604;52.138;5.446;2022-11-15T11:30:09;7.30;;;3.13;;
71767;SDS011;59604;52.138;5.446;2022-11-15T11:32:57;8.60;;;3.10;;
71767;SDS011;59604;52.138;5.446;2022-11-15T11:47:21;5.65;;;2.67;;
71767;SDS011;59604;52.138;5.446;2022-11-15T11:52:27;8.43;;;2.97;;
71767;SDS011;59604;52.138;5.446;2022-11-15T11:57:31;6.90;;;2.90;;
71767;SDS011;59604;52.138;5.446;2022-11-15T12:00:04;5.28;;;2.70;;
71767;SDS011;59604;52.138;5.446;2022-11-15T12:02:48;6.85;;;2.67;;
71767;SDS011;59604;52.138;5.446;2022-11-15T12:08:16;5.88;;;2.33;;
71767;SDS011;59604;52.138;5.446;2022-11-15T12:10:50;6.43;;;2.40;;
71767;SDS011;59604;52.138;5.446;2022-11-15T12:13:25;5.45;;;1.95;;
71767;SDS011;59604;52.138;5.446;2022-11-15T12:16:40;5.97;;;2.00;;
71767;SDS011;59604;52.138;5.446;2022-11-15T12:18:56;5.93;;;2.00;;
71767;SDS011;59604;52.138;5.446;2022-11-15T12:24:02;9.20;;;1.90;;
71767;SDS011;59604;52.138;5.446;2022-11-15T12:26:35;6.95;;;1.63;;
71767;SDS011;59604;52.138;5.446;2022-11-15T12:29:11;8.80;;;1.50;;
71767;SDS011;59604;52.138;5.446;2022-11-15T12:31:44;5.88;;;1.38;;
71767;SDS011;59604;52.138;5.446;2022-11-15T12:36:49;4.60;;;1.20;;
71767;SDS011;59604;52.138;5.446;2022-11-15T12:39:17;7.43;;;1.20;;
71767;SDS011;59604;52.138;5.446;2022-11-15T13:02:35;5.47;;;1.58;;
71767;SDS011;59604;52.138;5.446;2022-11-15T13:17:50;6.18;;;1.83;;
71767;SDS011;59604;52.138;5.446;2022-11-15T13:22:58;7.03;;;1.65;;
71767;SDS011;59604;52.138;5.446;2022-11-15T13:31:00;5.90;;;1.83;;
71767;SDS011;59604;52.138;5.446;2022-11-15T13:33:40;5.97;;;1.75;;
71767;SDS011;59604;52.138;5.446;2022-11-15T13:36:08;8.82;;;1.80;;
71767;SDS011;59604;52.138;5.446;2022-11-15T13:38:41;6.00;;;2.08;;
71767;SDS011;59604;52.138;5.446;2022-11-15T13:41:19;7.10;;;1.80;;
71767;SDS011;59604;52.138;5.446;2022-11-15T13:43:48;5.65;;;2.00;;
71767;SDS011;59604;52.138;5.446;2022-11-15T13:46:17;6.32;;;2.42;;
71767;SDS011;59604;52.138;5.446;2022-11-15T13:48:57;7.90;;;2.10;;
71767;SDS011;59604;52.138;5.446;2022-11-15T13:51:32;4.93;;;1.77;;
71767;SDS011;59604;52.138;5.446;2022-11-15T13:54:09;7.43;;;1.80;;
71767;SDS011;59604;52.138;5.446;2022-11-15T13:56:40;5.45;;;1.60;;
71767;SDS011;59604;52.138;5.446;2022-11-15T13:59:20;6.10;;;1.70;;
71767;SDS011;59604;52.138;5.446;2022-11-15T14:02:18;6.35;;;1.50;;
71767;SDS011;59604;52.138;5.446;2022-11-15T14:04:48;6.20;;;1.63;;
71767;SDS011;59604;52.138;5.446;2022-11-15T14:07:18;5.13;;;1.50;;
71767;SDS011;59604;52.138;5.446;2022-11-15T14:09:47;5.35;;;1.50;;
71767;SDS011;59604;52.138;5.446;2022-11-15T14:14:53;6.60;;;1.80;;
71767;SDS011;59604;52.138;5.446;2022-11-15T14:17:42;6.15;;;1.80;;
71767;SDS011;59604;52.138;5.446;2022-11-15T14:23:05;5.60;;;1.75;;
71767;SDS011;59604;52.138;5.446;2022-11-15T14:25:55;8.73;;;1.95;;
71767;SDS011;59604;52.138;5.446;2022-11-15T14:30:50;6.07;;;1.65;;
71767;SDS011;59604;52.138;5.446;2022-11-15T14:33:20;8.00;;;2.15;;
71767;SDS011;59604;52.138;5.446;2022-11-15T14:35:50;5.88;;;1.60;;
71767;SDS011;59604;52.138;5.446;2022-11-15T14:40:45;5.53;;;1.60;;
71767;SDS011;59604;52.138;5.446;2022-11-15T14:43:11;5.35;;;1.50;;
71767;SDS011;59604;52.138;5.446;2022-11-15T14:45:39;4.95;;;1.42;;
71767;SDS011;59604;52.138;5.446;2022-11-15T14:48:05;7.10;;;1.63;;
71767;SDS011;59604;52.138;5.446;2022-11-15T14:50:33;5.00;;;1.67;;
71767;SDS011;59604;52.138;5.446;2022-11-15T14:53:00;6.57;;;1.63;;
71767;SDS011;59604;52.138;5.446;2022-11-15T14:55:27;5.68;;;1.85;;
71767;SDS011;59604;52.138;5.446;2022-11-15T14:57:58;5.90;;;1.50;;
71767;SDS011;59604;52.138;5.446;2022-11-15T15:00:25;5.00;;;1.38;;
71767;SDS011;59604;52.138;5.446;2022-11-15T15:02:59;8.07;;;1.58;;
71767;SDS011;59604;52.138;5.446;2022-11-15T15:05:29;4.18;;;1.42;;
71767;SDS011;59604;52.138;5.446;2022-11-15T15:07:58;4.63;;;1.38;;
71767;SDS011;59604;52.138;5.446;2022-11-15T15:10:35;5.40;;;1.40;;
71767;SDS011;59604;52.138;5.446;2022-11-15T15:15:42;5.38;;;1.35;;
71767;SDS011;59604;52.138;5.446;2022-11-15T15:18:09;4.18;;;1.20;;
71767;SDS011;59604;52.138;5.446;2022-11-15T15:20:38;7.20;;;1.50;;
71767;SDS011;59604;52.138;5.446;2022-11-15T15:23:10;4.25;;;1.17;;
71767;SDS011;59604;52.138;5.446;2022-11-15T15:25:42;6.13;;;1.30;;
71767;SDS011;59604;52.138;5.446;2022-11-15T15:28:09;5.45;;;1.20;;
71767;SDS011;59604;52.138;5.446;2022-11-15T15:30:36;6.95;;;1.38;;
71767;SDS011;59604;52.138;5.446;2022-11-15T15:33:02;4.22;;;1.23;;
71767;SDS011;59604;52.138;5.446;2022-11-15T15:35:30;7.28;;;1.50;;
71767;SDS011;59604;52.138;5.446;2022-11-15T15:37:59;4.50;;;1.13;;
71767;SDS011;59604;52.138;5.446;2022-11-15T15:40:27;5.47;;;1.23;;
71767;SDS011;59604;52.138;5.446;2022-11-15T15:42:56;4.72;;;1.25;;
71767;SDS011;59604;52.138;5.446;2022-11-15T15:45:22;4.57;;;1.23;;
71767;SDS011;59604;52.138;5.446;2022-11-15T15:47:49;4.70;;;1.20;;
71767;SDS011;59604;52.138;5.446;2022-11-15T15:50:26;4.03;;;1.20;;
71767;SDS011;59604;52.138;5.446;2022-11-15T15:52:55;5.38;;;1.08;;
71767;SDS011;59604;52.138;5.446;2022-11-15T15:55:23;3.53;;;1.20;;
71767;SDS011;59604;52.138;5.446;2022-11-15T15:57:51;6.40;;;1.50;;
71767;SDS011;59604;52.138;5.446;2022-11-15T16:00:18;7.75;;;2.88;;
71767;SDS011;59604;52.138;5.446;2022-11-15T16:02:45;5.90;;;1.80;;
71767;SDS011;59604;52.138;5.446;2022-11-15T16:05:12;7.32;;;2.30;;
71767;SDS011;59604;52.138;5.446;2022-11-15T16:07:39;7.35;;;2.05;;
71767;SDS011;59604;52.138;5.446;2022-11-15T16:12:45;6.85;;;1.90;;
71767;SDS011;59604;52.138;5.446;2022-11-15T16:15:12;6.70;;;2.08;;
71767;SDS011;59604;52.138;5.446;2022-11-15T16:17:44;8.02;;;2.22;;
71767;SDS011;59604;52.138;5.446;2022-11-15T16:23:06;8.38;;;5.78;;
71767;SDS011;59604;52.138;5.446;2022-11-15T16:28:18;6.28;;;2.30;;
71767;SDS011;59604;52.138;5.446;2022-11-15T16:30:58;4.82;;;1.40;;
71767;SDS011;59604;52.138;5.446;2022-11-15T16:33:34;6.72;;;2.30;;
71767;SDS011;59604;52.138;5.446;2022-11-15T16:36:02;6.63;;;1.58;;
71767;SDS011;59604;52.138;5.446;2022-11-15T16:38:30;6.97;;;1.70;;
71767;SDS011;59604;52.138;5.446;2022-11-15T16:40:57;5.97;;;1.45;;
71767;SDS011;59604;52.138;5.446;2022-11-15T16:43:24;5.82;;;1.40;;
71767;SDS011;59604;52.138;5.446;2022-11-15T16:45:51;6.00;;;1.45;;
71767;SDS011;59604;52.138;5.446;2022-11-15T16:48:27;4.80;;;1.67;;
71767;SDS011;59604;52.138;5.446;2022-11-15T16:50:54;4.85;;;1.75;;
71767;SDS011;59604;52.138;5.446;2022-11-15T16:53:22;5.57;;;1.60;;
71767;SDS011;59604;52.138;5.446;2022-11-15T16:55:50;5.20;;;1.70;;
71767;SDS011;59604;52.138;5.446;2022-11-15T16:58:16;4.47;;;1.30;;
71767;SDS011;59604;52.138;5.446;2022-11-15T17:00:43;6.40;;;1.45;;
71767;SDS011;59604;52.138;5.446;2022-11-15T17:03:10;5.68;;;1.70;;
71767;SDS011;59604;52.138;5.446;2022-11-15T17:05:37;3.92;;;1.60;;
71767;SDS011;59604;52.138;5.446;2022-11-15T17:08:03;5.10;;;1.65;;
71767;SDS011;59604;52.138;5.446;2022-11-15T17:10:30;7.75;;;2.10;;
71767;SDS011;59604;52.138;5.446;2022-11-15T17:12:56;5.82;;;1.92;;
71767;SDS011;59604;52.138;5.446;2022-11-15T17:15:23;5.18;;;1.73;;
71767;SDS011;59604;52.138;5.446;2022-11-15T17:17:50;8.05;;;2.03;;
71767;SDS011;59604;52.138;5.446;2022-11-15T17:20:19;7.00;;;2.55;;
71767;SDS011;59604;52.138;5.446;2022-11-15T17:22:47;6.00;;;1.75;;
71767;SDS011;59604;52.138;5.446;2022-11-15T17:25:13;6.68;;;2.85;;
71767;SDS011;59604;52.138;5.446;2022-11-15T17:27:40;5.13;;;2.60;;
71767;SDS011;59604;52.138;5.446;2022-11-15T17:30:06;7.57;;;2.10;;
71767;SDS011;59604;52.138;5.446;2022-11-15T17:32:37;6.03;;;2.10;;
71767;SDS011;59604;52.138;5.446;2022-11-15T17:35:04;7.72;;;2.10;;
71767;SDS011;59604;52.138;5.446;2022-11-15T17:37:40;5.18;;;2.38;;
71767;SDS011;59604;52.138;5.446;2022-11-15T17:40:07;7.65;;;2.95;;